Time;durP1;ratioP1;P1;durP2;ratioP2;P2;SDS_P1;SDS_P2;PMS_P1;PMS_P2;Temp;Humidity;BMP_temperature;BMP_pressure;BME280_temperature;BME280_humidity;BME280_pressure;Samples;Min_cycle;Max_cycle;Signal;HPM_P1;HPM_P2
2022/08/13 00:02:10;;;;;;;4.90;2.80;;;16.10;66.80;;;;;;5153129;27;20206;-87
2022/08/13 00:04:39;;;;;;;3.17;2.88;;;16.10;67.20;;;;;;5124275;27;20204;-87
2022/08/13 00:07:07;;;;;;;3.25;2.75;;;16.10;68.40;;;;;;5149816;27;20198;-87
2022/08/13 00:09:38;;;;;;;5.85;2.80;;;16.00;69.20;;;;;;5148812;27;20615;-87
2022/08/13 00:14:52;;;;;;;4.13;2.72;;;16.00;70.80;;;;;;5141210;27;20205;-87
2022/08/13 00:17:20;;;;;;;3.38;2.75;;;15.90;72.00;;;;;;5135816;27;20242;-87
2022/08/13 00:19:49;;;;;;;4.15;2.88;;;15.90;72.40;;;;;;5146019;27;20202;-87
2022/08/13 00:22:18;;;;;;;4.97;3.00;;;15.90;72.60;;;;;;5145210;27;20199;-87
2022/08/13 00:24:45;;;;;;;6.22;3.10;;;15.80;74.10;;;;;;5151535;27;20199;-87
2022/08/13 00:27:12;;;;;;;3.72;3.03;;;15.80;73.10;;;;;;5146740;27;20211;-86
2022/08/13 00:29:39;;;;;;;3.53;2.80;;;15.80;73.80;;;;;;5147664;27;20245;-87
2022/08/13 00:32:06;;;;;;;6.25;3.05;;;15.70;74.80;;;;;;5150516;27;20289;-87
2022/08/13 00:34:35;;;;;;;4.18;3.05;;;15.70;74.50;;;;;;5143703;27;20194;-87
2022/08/13 00:37:02;;;;;;;3.17;2.88;;;15.70;75.30;;;;;;5140383;27;20217;-87
2022/08/13 00:39:29;;;;;;;4.57;3.10;;;15.60;75.40;;;;;;5143032;27;20564;-87
2022/08/13 00:41:57;;;;;;;3.00;2.70;;;15.60;75.70;;;;;;5149197;27;20210;-87
2022/08/13 00:44:24;;;;;;;5.82;3.20;;;15.50;76.20;;;;;;5143417;27;20662;-87
2022/08/13 00:48:41;;;;;;;5.85;3.28;;;15.50;76.60;;;;;;5147607;27;20564;-87
2022/08/13 00:49:39;;;;;;;3.38;3.08;;;15.50;76.40;;;;;;5140344;27;20712;-87
2022/08/13 00:52:10;;;;;;;3.22;2.92;;;15.50;76.20;;;;;;5145425;27;20205;-87
2022/08/13 00:54:40;;;;;;;3.58;3.20;;;15.50;76.60;;;;;;5141772;27;20292;-87
2022/08/13 00:57:12;;;;;;;6.05;3.20;;;15.50;77.70;;;;;;5140785;27;20638;-87
2022/08/13 00:59:39;;;;;;;4.55;4.03;;;15.40;77.50;;;;;;5140491;27;20282;-87
2022/08/13 01:02:06;;;;;;;3.30;3.00;;;15.40;77.60;;;;;;5133321;27;20206;-87
2022/08/13 01:04:33;;;;;;;5.15;3.50;;;15.40;77.60;;;;;;5129607;27;20414;-87
2022/08/13 01:07:04;;;;;;;5.30;3.38;;;15.50;77.70;;;;;;5139592;27;20203;-87
2022/08/13 01:09:31;;;;;;;7.07;6.32;;;15.40;77.60;;;;;;5125009;27;20215;-87
2022/08/13 01:12:00;;;;;;;3.80;3.47;;;15.50;77.70;;;;;;5133828;27;20222;-87
2022/08/13 01:14:32;;;;;;;5.35;2.80;;;15.60;76.30;;;;;;5139386;27;20199;-87
2022/08/13 01:17:02;;;;;;;4.45;4.05;;;15.70;75.00;;;;;;5132034;27;20202;-87
2022/08/13 01:19:31;;;;;;;7.28;4.90;;;15.60;76.40;;;;;;5139530;27;20200;-87
2022/08/13 01:22:00;;;;;;;3.40;3.10;;;15.50;77.70;;;;;;5131729;27;20555;-87
2022/08/13 01:24:28;;;;;;;3.53;3.22;;;15.60;77.10;;;;;;5133545;27;20198;-87
2022/08/13 01:26:56;;;;;;;4.82;3.75;;;15.50;77.60;;;;;;5136099;27;20195;-87
2022/08/13 01:29:24;;;;;;;3.75;3.45;;;15.50;77.70;;;;;;5143329;27;20294;-87
2022/08/13 01:31:52;;;;;;;3.50;3.20;;;15.60;77.70;;;;;;5140142;27;20199;-86
2022/08/13 01:34:22;;;;;;;3.58;3.28;;;15.60;77.70;;;;;;5143899;27;20203;-86
2022/08/13 01:36:50;;;;;;;4.78;3.13;;;15.60;77.70;;;;;;5136833;27;20200;-87
2022/08/13 01:39:18;;;;;;;3.40;2.90;;;15.60;76.40;;;;;;5137561;27;20264;-87
2022/08/13 01:41:46;;;;;;;3.50;3.20;;;15.60;77.30;;;;;;5143688;27;20195;-87
2022/08/13 01:44:14;;;;;;;3.85;3.10;;;15.60;76.80;;;;;;5135328;27;20231;-87
2022/08/13 01:52:13;;;;;;;3.92;3.10;;;15.00;78.70;;;;;;5136276;27;20202;-86
2022/08/13 01:54:44;;;;;;;3.50;2.90;;;14.80;80.70;;;;;;5126688;27;20196;-87
2022/08/13 01:57:11;;;;;;;3.47;2.83;;;14.90;81.20;;;;;;5132904;27;20196;-87
2022/08/13 01:59:40;;;;;;;3.30;3.00;;;14.90;81.70;;;;;;5137527;27;20270;-87
2022/08/13 02:02:10;;;;;;;7.22;3.53;;;14.90;80.70;;;;;;5135087;27;20202;-87
2022/08/13 02:04:37;;;;;;;4.05;3.30;;;14.80;81.60;;;;;;5136054;27;20223;-86
2022/08/13 02:07:06;;;;;;;3.92;3.25;;;14.80;82.70;;;;;;5135234;27;20668;-87
2022/08/13 02:09:33;;;;;;;3.67;3.38;;;14.70;82.20;;;;;;5136876;27;20195;-87
2022/08/13 02:12:01;;;;;;;5.18;4.65;;;14.70;82.90;;;;;;5136785;27;20206;-87
2022/08/13 02:14:30;;;;;;;4.60;4.13;;;14.60;83.00;;;;;;5135877;27;20191;-87
2022/08/13 02:16:57;;;;;;;4.57;3.60;;;14.60;83.80;;;;;;5136800;27;20286;-87
2022/08/13 02:19:24;;;;;;;7.53;5.60;;;14.50;83.40;;;;;;5134661;27;20199;-87
2022/08/13 02:21:58;;;;;;;4.05;3.40;;;14.40;84.40;;;;;;5136794;27;20195;-87
2022/08/13 02:24:25;;;;;;;11.85;10.63;;;14.30;84.70;;;;;;5135833;27;20276;-87
2022/08/13 02:26:52;;;;;;;5.55;4.63;;;14.50;86.60;;;;;;5136909;27;20207;-87
2022/08/13 02:29:22;;;;;;;6.22;5.57;;;14.80;83.50;;;;;;5136368;27;20672;-86
2022/08/13 02:31:50;;;;;;;5.25;4.65;;;15.20;81.40;;;;;;5124727;27;20279;-86
2022/08/13 02:34:18;;;;;;;5.50;3.40;;;15.40;79.70;;;;;;5134710;27;20203;-87
2022/08/13 02:36:48;;;;;;;3.65;3.17;;;15.70;77.80;;;;;;5133127;27;20203;-86
2022/08/13 02:39:20;;;;;;;3.80;3.00;;;16.00;72.30;;;;;;5136610;27;20195;-86
2022/08/13 02:41:47;;;;;;;3.17;2.75;;;15.90;72.90;;;;;;5135628;27;20274;-86
2022/08/13 02:44:16;;;;;;;3.30;2.90;;;15.70;70.90;;;;;;5136024;27;20264;-87
2022/08/13 02:46:49;;;;;;;4.32;2.85;;;15.40;73.90;;;;;;5121941;27;20205;-87
2022/08/13 02:49:17;;;;;;;9.00;8.07;;;15.50;76.30;;;;;;5136769;27;20203;-86
2022/08/13 02:51:44;;;;;;;8.18;6.78;;;15.70;73.50;;;;;;5135324;27;20250;-87
2022/08/13 02:54:11;;;;;;;8.63;7.18;;;15.60;73.40;;;;;;5136110;27;20255;-86
2022/08/13 02:56:38;;;;;;;6.43;5.80;;;15.70;71.80;;;;;;5136612;27;20271;-86
2022/08/13 02:59:10;;;;;;;5.25;4.22;;;15.50;72.70;;;;;;5138197;27;20203;-86
2022/08/13 03:01:38;;;;;;;4.05;3.65;;;15.30;74.30;;;;;;5138632;27;20203;-86
2022/08/13 03:04:07;;;;;;;4.15;3.22;;;15.40;72.60;;;;;;5144896;27;20203;-86
2022/08/13 03:06:34;;;;;;;3.38;3.05;;;15.10;73.10;;;;;;5139022;27;20669;-87
2022/08/13 03:09:02;;;;;;;6.15;2.90;;;15.10;75.10;;;;;;5152360;27;20621;-86
2022/08/13 03:11:29;;;;;;;3.40;3.10;;;14.90;75.20;;;;;;5144516;27;20279;-86
2022/08/13 03:13:59;;;;;;;3.13;2.83;;;14.70;77.10;;;;;;5138326;27;20297;-87
2022/08/13 03:16:28;;;;;;;4.43;3.00;;;14.70;77.10;;;;;;5138670;27;20581;-86
2022/08/13 03:18:58;;;;;;;3.85;3.28;;;14.60;77.00;;;;;;5136874;27;20200;-86
2022/08/13 03:21:33;;;;;;;3.42;3.00;;;14.40;76.80;;;;;;5147033;27;20207;-87
2022/08/13 03:24:00;;;;;;;3.20;2.60;;;14.10;77.00;;;;;;5138081;27;20203;-86
2022/08/13 03:26:27;;;;;;;3.30;3.00;;;14.20;77.50;;;;;;5142515;27;20195;-86
2022/08/13 03:29:03;;;;;;;4.80;3.20;;;14.20;78.70;;;;;;5142919;27;20663;-86
2022/08/13 03:31:34;;;;;;;12.13;10.13;;;14.20;78.90;;;;;;5143784;27;20211;-86
2022/08/13 03:34:08;;;;;;;6.95;6.05;;;14.20;76.70;;;;;;5140645;27;20229;-86
2022/08/13 03:36:40;;;;;;;9.00;7.15;;;14.20;78.30;;;;;;5139977;27;20695;-86
2022/08/13 03:39:06;;;;;;;8.15;7.35;;;14.30;77.10;;;;;;5139171;27;20199;-86
2022/08/13 03:41:33;;;;;;;7.22;6.00;;;14.30;76.80;;;;;;5140778;27;20189;-85
2022/08/13 03:44:02;;;;;;;5.53;4.55;;;14.60;77.00;;;;;;5142397;27;20223;-85
2022/08/13 03:46:29;;;;;;;5.50;4.70;;;14.70;76.10;;;;;;5141733;27;20213;-85
2022/08/13 03:48:56;;;;;;;4.10;3.42;;;14.90;74.70;;;;;;5133419;27;20285;-85
2022/08/13 03:51:24;;;;;;;4.88;3.67;;;14.90;70.30;;;;;;5145586;27;20222;-86
2022/08/13 03:53:53;;;;;;;4.00;3.17;;;14.90;72.30;;;;;;5146320;27;20282;-86
2022/08/13 03:56:24;;;;;;;3.80;3.08;;;14.80;71.80;;;;;;5144671;27;20218;-86
2022/08/13 03:58:51;;;;;;;4.28;3.20;;;14.70;73.20;;;;;;5133620;27;20191;-86
2022/08/13 04:01:18;;;;;;;4.60;2.95;;;14.70;73.20;;;;;;5148177;27;20206;-85
2022/08/13 04:03:45;;;;;;;4.10;3.40;;;14.60;73.50;;;;;;5142668;27;20286;-85
2022/08/13 04:06:15;;;;;;;3.75;3.35;;;14.20;74.10;;;;;;5140415;27;20221;-85
2022/08/13 04:08:43;;;;;;;3.42;3.13;;;14.00;76.60;;;;;;5143066;27;20273;-86
2022/08/13 04:11:18;;;;;;;4.60;3.30;;;13.80;78.30;;;;;;5134701;27;20228;-85
2022/08/13 04:13:46;;;;;;;3.63;3.28;;;13.70;79.70;;;;;;5140719;27;20217;-85
2022/08/13 04:16:16;;;;;;;3.78;3.08;;;13.70;78.80;;;;;;5137905;27;20199;-85
2022/08/13 04:18:44;;;;;;;3.45;3.15;;;13.70;78.80;;;;;;5137901;27;20205;-85
2022/08/13 04:21:14;;;;;;;7.55;3.05;;;13.60;80.50;;;;;;5142825;27;20229;-85
2022/08/13 04:23:43;;;;;;;4.55;3.08;;;13.60;79.70;;;;;;5134193;27;20286;-85
2022/08/13 04:26:11;;;;;;;6.25;3.00;;;14.00;78.50;;;;;;5135558;27;20673;-85
2022/08/13 04:28:41;;;;;;;3.92;2.95;;;14.40;76.80;;;;;;5134540;27;20217;-85
2022/08/13 04:31:09;;;;;;;3.75;3.05;;;14.40;73.90;;;;;;5135625;27;20223;-85
2022/08/13 04:33:36;;;;;;;3.28;2.97;;;14.50;76.40;;;;;;5137395;27;20229;-85
2022/08/13 04:36:04;;;;;;;4.03;2.75;;;14.40;73.50;;;;;;5131282;27;20563;-86
2022/08/13 04:38:31;;;;;;;3.67;3.00;;;14.60;74.40;;;;;;5130642;27;20307;-86
2022/08/13 04:40:58;;;;;;;2.88;2.67;;;14.80;71.30;;;;;;5137081;27;20617;-86
2022/08/13 04:43:25;;;;;;;3.40;3.10;;;14.80;69.70;;;;;;5127863;27;20278;-86
2022/08/13 04:45:59;;;;;;;3.10;2.80;;;14.40;71.50;;;;;;5135844;27;20274;-86
2022/08/13 04:48:28;;;;;;;4.82;3.20;;;14.20;74.60;;;;;;5132551;27;20199;-86
2022/08/13 04:50:55;;;;;;;5.57;3.00;;;14.00;76.60;;;;;;5134271;27;20223;-86
2022/08/13 04:53:28;;;;;;;3.58;2.72;;;14.50;74.30;;;;;;5133083;27;20207;-86
2022/08/13 04:55:55;;;;;;;3.20;2.70;;;15.30;64.60;;;;;;5134159;27;20203;-86
2022/08/13 04:58:23;;;;;;;4.20;3.05;;;15.50;63.00;;;;;;5133129;27;20650;-85
2022/08/13 05:00:51;;;;;;;3.78;2.70;;;15.60;59.30;;;;;;5125598;27;20212;-86
2022/08/13 05:03:21;;;;;;;5.90;3.00;;;15.60;61.30;;;;;;5130542;27;20207;-86
2022/08/13 05:05:51;;;;;;;3.08;2.83;;;15.80;59.30;;;;;;5131994;27;20195;-86
2022/08/13 05:08:19;;;;;;;5.82;3.00;;;15.70;58.50;;;;;;5137847;27;20198;-87
2022/08/13 05:10:47;;;;;;;3.60;2.60;;;15.60;60.30;;;;;;5119077;27;20215;-86
2022/08/13 05:13:24;;;;;;;3.35;2.90;;;15.50;61.50;;;;;;5132189;27;20579;-86
2022/08/13 05:15:52;;;;;;;2.92;2.72;;;15.20;62.00;;;;;;5125690;27;20191;-86
2022/08/13 05:18:20;;;;;;;2.83;2.60;;;15.30;63.90;;;;;;5136252;27;20207;-86
2022/08/13 05:20:52;;;;;;;3.10;2.80;;;15.30;62.50;;;;;;5120059;27;20600;-86
2022/08/13 05:23:22;;;;;;;3.67;2.90;;;15.50;61.60;;;;;;5133809;27;20212;-87
2022/08/13 05:25:50;;;;;;;3.45;2.65;;;15.50;62.90;;;;;;5137831;27;20217;-86
2022/08/13 05:28:17;;;;;;;4.63;2.80;;;15.80;60.40;;;;;;5148214;27;20199;-86
2022/08/13 05:30:46;;;;;;;5.75;2.88;;;16.10;57.90;;;;;;5139420;27;20211;-86
2022/08/13 05:33:14;;;;;;;3.17;2.72;;;16.10;57.60;;;;;;5146052;27;20649;-86
2022/08/13 05:35:44;;;;;;;3.35;2.60;;;16.00;59.20;;;;;;5141852;27;20218;-86
2022/08/13 05:38:11;;;;;;;3.78;2.47;;;16.00;59.00;;;;;;5144030;27;20201;-86
2022/08/13 05:40:38;;;;;;;3.20;2.40;;;16.20;57.20;;;;;;5133961;27;20200;-86
2022/08/13 05:43:13;;;;;;;4.85;3.03;;;16.40;54.20;;;;;;5121853;27;20235;-86
2022/08/13 05:45:41;;;;;;;4.63;2.92;;;16.30;55.00;;;;;;5124026;27;20564;-86
2022/08/13 05:48:08;;;;;;;2.88;2.50;;;16.00;55.20;;;;;;5129442;27;20195;-86
2022/08/13 05:50:35;;;;;;;3.80;2.60;;;16.00;56.90;;;;;;5120667;27;20206;-86
2022/08/13 05:53:13;;;;;;;2.83;2.55;;;16.10;56.70;;;;;;5132750;27;20209;-86
2022/08/13 05:55:41;;;;;;;4.32;2.72;;;16.10;56.40;;;;;;5119971;28;20277;-87
2022/08/13 05:58:10;;;;;;;2.75;2.55;;;16.10;55.40;;;;;;5132359;27;20230;-86
2022/08/13 06:03:28;;;;;;;3.15;2.72;;;16.30;55.00;;;;;;5118892;28;20670;-86
2022/08/13 06:05:56;;;;;;;3.60;2.85;;;16.30;55.80;;;;;;5133653;27;20581;-86
2022/08/13 06:08:29;;;;;;;2.95;2.38;;;16.20;57.80;;;;;;5144130;27;20282;-86
2022/08/13 06:10:57;;;;;;;2.88;2.50;;;16.20;57.10;;;;;;5128339;27;20203;-86
2022/08/13 06:13:25;;;;;;;4.60;2.55;;;16.30;56.20;;;;;;5154846;27;20198;-86
2022/08/13 06:15:58;;;;;;;3.28;2.30;;;16.00;54.50;;;;;;5153609;27;20220;-86
2022/08/13 06:18:27;;;;;;;2.95;2.75;;;16.00;56.60;;;;;;5155962;27;20213;-86
2022/08/13 06:20:55;;;;;;;3.28;2.42;;;16.00;56.80;;;;;;5153300;27;20204;-87
2022/08/13 06:23:24;;;;;;;2.50;2.30;;;16.20;56.80;;;;;;5155071;27;20209;-86
2022/08/13 06:25:52;;;;;;;2.75;2.50;;;16.40;55.50;;;;;;5139114;27;20202;-86
2022/08/13 06:28:20;;;;;;;5.68;2.38;;;16.80;53.00;;;;;;5137436;27;20210;-86
2022/08/13 06:30:51;;;;;;;2.42;2.22;;;17.10;52.60;;;;;;5136327;27;20200;-87
2022/08/13 06:33:21;;;;;;;2.72;2.53;;;16.90;53.10;;;;;;5153494;27;20194;-86
2022/08/13 06:35:49;;;;;;;3.40;2.40;;;16.60;51.10;;;;;;5151038;27;20211;-86
2022/08/13 06:38:18;;;;;;;5.15;2.45;;;16.60;52.80;;;;;;5125846;27;20695;-86
2022/08/13 06:40:48;;;;;;;2.60;2.40;;;16.60;52.70;;;;;;5136188;27;20198;-86
2022/08/13 06:43:18;;;;;;;6.00;2.60;;;16.80;51.40;;;;;;5136913;27;20199;-86
2022/08/13 06:45:46;;;;;;;5.25;2.30;;;17.00;50.80;;;;;;5136501;27;20556;-86
2022/08/13 06:48:20;;;;;;;3.42;2.20;;;17.20;49.60;;;;;;5137604;27;20203;-86
2022/08/13 06:50:50;;;;;;;2.63;2.42;;;17.40;47.40;;;;;;5137141;27;20561;-86
2022/08/13 06:53:18;;;;;;;2.67;2.20;;;17.70;44.40;;;;;;5137143;27;20650;-86
2022/08/13 06:55:52;;;;;;;2.53;2.30;;;17.70;43.40;;;;;;5137523;27;20207;-86
2022/08/13 06:58:25;;;;;;;2.67;2.42;;;17.70;45.40;;;;;;5136029;27;20200;-86
2022/08/13 07:00:53;;;;;;;2.85;2.35;;;17.70;45.40;;;;;;5136340;27;20223;-86
2022/08/13 07:03:28;;;;;;;2.40;2.20;;;17.90;44.40;;;;;;5135588;27;20203;-87
2022/08/13 07:05:57;;;;;;;6.45;2.50;;;17.90;44.60;;;;;;5137357;27;20648;-86
2022/08/13 07:08:29;;;;;;;6.47;2.28;;;17.90;44.10;;;;;;5136619;27;20248;-86
2022/08/13 07:13:45;;;;;;;2.33;2.13;;;18.10;44.80;;;;;;5119820;27;20206;-86
2022/08/13 07:16:16;;;;;;;3.25;2.28;;;18.20;44.80;;;;;;5131599;27;20207;-86
2022/08/13 07:18:43;;;;;;;2.10;2.00;;;18.40;42.20;;;;;;5119909;27;20340;-86
2022/08/13 07:21:13;;;;;;;2.30;2.10;;;18.70;39.40;;;;;;5138950;27;20617;-86
2022/08/13 07:23:45;;;;;;;2.42;2.00;;;19.00;38.60;;;;;;5129310;27;20199;-86
2022/08/13 07:26:13;;;;;;;2.47;1.77;;;19.10;35.90;;;;;;5135044;27;20202;-86
2022/08/13 07:28:41;;;;;;;4.80;1.80;;;19.20;36.80;;;;;;5135163;27;20202;-86
2022/08/13 07:31:11;;;;;;;2.22;1.80;;;19.40;34.50;;;;;;5143453;27;20257;-86
2022/08/13 07:33:42;;;;;;;2.10;1.90;;;19.50;34.00;;;;;;5136174;27;20202;-87
2022/08/13 07:36:12;;;;;;;2.10;1.90;;;19.40;33.70;;;;;;5136086;27;20199;-87
2022/08/13 07:38:40;;;;;;;1.90;1.80;;;19.40;36.10;;;;;;5139789;27;20204;-87
2022/08/13 07:41:07;;;;;;;1.80;1.70;;;19.40;31.60;;;;;;5133803;27;20256;-86
2022/08/13 07:43:34;;;;;;;3.45;1.80;;;19.40;31.60;;;;;;5134511;27;20219;-86
2022/08/13 07:46:07;;;;;;;1.90;1.80;;;19.40;36.80;;;;;;5139110;27;20222;-86
2022/08/13 07:48:37;;;;;;;2.03;1.83;;;19.50;34.60;;;;;;5141312;27;20260;-86
2022/08/13 07:51:06;;;;;;;2.67;2.00;;;19.60;33.80;;;;;;5141350;27;20205;-86
2022/08/13 07:53:34;;;;;;;2.63;2.30;;;19.60;33.90;;;;;;5142968;27;20694;-86
2022/08/13 07:56:02;;;;;;;3.03;1.90;;;19.80;31.90;;;;;;5143097;27;20199;-86
2022/08/13 07:58:30;;;;;;;1.73;1.63;;;19.80;31.90;;;;;;5141829;27;20684;-86
2022/08/13 08:00:59;;;;;;;3.50;1.83;;;19.90;32.00;;;;;;5143302;27;20211;-86
2022/08/13 08:03:32;;;;;;;2.42;1.90;;;19.90;35.60;;;;;;5144205;27;20211;-86
2022/08/13 08:06:03;;;;;;;1.92;1.80;;;20.00;32.10;;;;;;5131860;27;20191;-84
2022/08/13 08:08:32;;;;;;;2.00;1.70;;;20.20;31.80;;;;;;5141489;27;20230;-84
2022/08/13 08:11:01;;;;;;;1.85;1.75;;;20.30;30.30;;;;;;5140862;27;20666;-84
2022/08/13 08:13:32;;;;;;;2.65;1.90;;;20.40;29.10;;;;;;5137054;27;20227;-84
2022/08/13 08:16:01;;;;;;;3.10;1.92;;;20.60;28.60;;;;;;5143451;27;20200;-84
2022/08/13 08:18:28;;;;;;;2.22;1.70;;;20.70;28.40;;;;;;5130119;27;20242;-84
2022/08/13 08:21:05;;;;;;;2.53;1.73;;;20.70;27.70;;;;;;5132394;27;20192;-84
2022/08/13 08:23:35;;;;;;;2.20;2.00;;;20.90;28.20;;;;;;5134425;27;20217;-85
2022/08/13 08:26:06;;;;;;;3.58;1.83;;;21.00;28.00;;;;;;5118247;27;20200;-85
2022/08/13 08:28:35;;;;;;;3.45;1.98;;;21.20;27.50;;;;;;5132434;27;20205;-85
2022/08/13 08:31:06;;;;;;;2.42;1.85;;;21.40;26.10;;;;;;5121290;27;20287;-84
2022/08/13 08:33:34;;;;;;;2.83;1.90;;;21.40;27.00;;;;;;5137320;27;20245;-85
2022/08/13 08:36:05;;;;;;;1.90;1.80;;;21.40;25.90;;;;;;5149502;27;20645;-85
2022/08/13 08:44:11;;;;;;;2.30;2.00;;;21.60;25.10;;;;;;5142276;27;20222;-85
2022/08/13 08:46:39;;;;;;;6.22;2.30;;;21.70;25.40;;;;;;5132686;27;20606;-84
2022/08/13 08:49:08;;;;;;;2.65;1.92;;;21.80;25.60;;;;;;5136413;27;20210;-85
2022/08/13 08:51:37;;;;;;;2.50;1.73;;;21.90;24.90;;;;;;5125197;27;20206;-85
2022/08/13 08:54:04;;;;;;;5.18;2.22;;;21.80;24.50;;;;;;5132918;27;20198;-85
2022/08/13 08:56:34;;;;;;;2.22;1.98;;;21.70;25.00;;;;;;5130032;27;20569;-84
2022/08/13 08:59:03;;;;;;;3.17;1.83;;;21.90;26.30;;;;;;5133991;27;20286;-85
2022/08/13 09:01:34;;;;;;;2.05;1.77;;;22.20;23.00;;;;;;5129199;27;20286;-85
2022/08/13 09:04:02;;;;;;;3.60;1.83;;;22.40;23.40;;;;;;5130107;27;20207;-85
2022/08/13 09:06:31;;;;;;;2.75;2.25;;;22.70;22.50;;;;;;5137118;27;20564;-85
2022/08/13 09:09:00;;;;;;;6.53;2.00;;;23.00;22.20;;;;;;5136324;27;20199;-84
2022/08/13 09:11:51;;;;;;;2.05;1.80;;;23.60;19.10;;;;;;5132548;27;20201;-83
2022/08/13 09:14:19;;;;;;;3.33;2.10;;;24.70;17.80;;;;;;5126252;27;20198;-83
2022/08/13 09:17:03;;;;;;;2.15;1.98;;;26.40;14.80;;;;;;5141540;27;20191;-83
2022/08/13 09:19:30;;;;;;;2.00;1.90;;;27.50;14.20;;;;;;5132235;27;20194;-83
2022/08/13 09:21:57;;;;;;;1.92;1.83;;;28.70;12.40;;;;;;5134365;27;20206;-84
2022/08/13 09:24:26;;;;;;;2.17;1.98;;;29.10;11.20;;;;;;5125125;27;20279;-84
2022/08/13 09:26:56;;;;;;;4.15;2.00;;;29.10;10.70;;;;;;5126885;27;20563;-84
2022/08/13 09:29:24;;;;;;;3.85;3.45;;;28.50;11.60;;;;;;5120344;27;20471;-84
2022/08/13 09:31:55;;;;;;;6.45;5.25;;;28.50;11.80;;;;;;5132731;27;20198;-84
2022/08/13 09:34:22;;;;;;;4.50;4.10;;;29.90;9.80;;;;;;5125116;27;20191;-84
2022/08/13 09:36:53;;;;;;;4.95;4.45;;;31.00;8.40;;;;;;5137735;27;20200;-84
2022/08/13 09:39:32;;;;;;;3.60;2.38;;;30.70;9.20;;;;;;5134252;27;20194;-84
2022/08/13 09:42:00;;;;;;;2.60;2.33;;;31.20;7.80;;;;;;5138387;27;20194;-85
2022/08/13 09:44:28;;;;;;;3.63;2.63;;;32.10;6.80;;;;;;5138151;27;20249;-84
2022/08/13 09:46:55;;;;;;;3.10;2.50;;;32.50;6.30;;;;;;5138764;27;20198;-84
2022/08/13 09:49:26;;;;;;;2.60;2.40;;;32.20;6.40;;;;;;5147826;27;20213;-85
2022/08/13 09:51:53;;;;;;;3.35;2.80;;;31.90;7.80;;;;;;5151923;27;20205;-85
2022/08/13 09:54:26;;;;;;;3.05;2.80;;;33.20;5.40;;;;;;5157069;27;20208;-84
2022/08/13 09:56:58;;;;;;;2.90;2.70;;;31.30;7.60;;;;;;5137558;27;20202;-84
2022/08/13 09:59:26;;;;;;;2.83;2.60;;;30.90;8.20;;;;;;5137459;27;20195;-85
2022/08/13 10:01:55;;;;;;;3.00;2.80;;;30.00;11.20;;;;;;5137024;27;20717;-84
2022/08/13 10:04:22;;;;;;;2.58;2.38;;;29.80;10.60;;;;;;5136523;27;20206;-85
2022/08/13 10:06:49;;;;;;;4.82;3.30;;;30.10;9.70;;;;;;5136030;27;20690;-85
2022/08/13 10:09:16;;;;;;;4.38;2.53;;;30.00;11.10;;;;;;5150082;27;20208;-85
2022/08/13 10:11:42;;;;;;;2.95;2.75;;;30.50;9.30;;;;;;5153831;27;20194;-84
2022/08/13 10:14:10;;;;;;;3.00;2.70;;;32.10;7.60;;;;;;5143840;27;20218;-84
2022/08/13 10:16:37;;;;;;;3.50;2.88;;;32.30;6.90;;;;;;5138355;27;20203;-84
2022/08/13 10:19:06;;;;;;;4.75;2.80;;;31.80;8.00;;;;;;5136854;27;20571;-84
2022/08/13 10:21:33;;;;;;;4.70;2.85;;;32.10;6.50;;;;;;5136482;27;20226;-85
2022/08/13 10:24:00;;;;;;;3.30;3.08;;;32.20;6.60;;;;;;5135868;27;20191;-84
2022/08/13 10:26:27;;;;;;;4.22;3.00;;;31.90;7.90;;;;;;5138568;27;20205;-85
2022/08/13 10:28:57;;;;;;;3.13;2.92;;;33.10;4.70;;;;;;5138564;27;20195;-84
2022/08/13 10:31:27;;;;;;;4.70;3.20;;;33.30;4.20;;;;;;5137257;27;20187;-84
2022/08/13 10:33:58;;;;;;;3.25;2.85;;;32.10;7.20;;;;;;5137429;27;20582;-84
2022/08/13 10:36:25;;;;;;;4.25;3.20;;;31.30;7.70;;;;;;5136599;27;20233;-84
2022/08/13 10:38:52;;;;;;;3.38;2.78;;;31.20;7.40;;;;;;5135562;27;20194;-85
2022/08/13 10:41:19;;;;;;;2.70;2.50;;;30.90;8.10;;;;;;5136748;27;20220;-84
2022/08/13 10:43:47;;;;;;;5.45;3.20;;;31.20;7.60;;;;;;5136208;27;20229;-85
2022/08/13 10:46:16;;;;;;;3.42;2.70;;;32.10;6.10;;;;;;5125624;27;20309;-84
2022/08/13 10:48:45;;;;;;;5.32;2.53;;;31.20;7.20;;;;;;5141110;27;20199;-84
2022/08/13 10:51:12;;;;;;;3.20;2.90;;;31.30;6.80;;;;;;5143743;27;20186;-84
2022/08/13 10:56:23;;;;;;;4.10;2.40;;;31.70;7.10;;;;;;5136397;27;20208;-84
2022/08/13 10:58:51;;;;;;;3.22;2.65;;;31.40;7.10;;;;;;5138449;27;20195;-84
2022/08/13 11:01:23;;;;;;;5.63;2.58;;;31.30;7.40;;;;;;5136331;27;20205;-84
2022/08/13 11:03:52;;;;;;;6.50;2.65;;;31.20;7.70;;;;;;5132587;27;20206;-83
2022/08/13 11:06:20;;;;;;;2.75;2.40;;;30.70;7.60;;;;;;5136377;27;20205;-84
2022/08/13 11:08:47;;;;;;;2.85;2.50;;;30.50;9.50;;;;;;5132308;27;20240;-84
2022/08/13 11:11:14;;;;;;;4.50;2.45;;;30.40;7.90;;;;;;5132062;27;20202;-84
2022/08/13 11:13:42;;;;;;;4.85;2.78;;;30.00;8.20;;;;;;5134165;27;20685;-84
2022/08/13 11:16:56;;;;;;;3.15;2.60;;;29.60;10.60;;;;;;5130902;27;20650;-83
2022/08/13 11:18:58;;;;;;;3.30;2.30;;;29.40;9.40;;;;;;5119781;27;20248;-83
2022/08/13 11:21:27;;;;;;;3.50;2.42;;;29.40;9.90;;;;;;5132481;27;20286;-83
2022/08/13 11:24:09;;;;;;;2.30;2.10;;;29.10;10.00;;;;;;5135621;27;20231;-82
2022/08/13 11:26:36;;;;;;;4.78;2.33;;;28.60;11.20;;;;;;5142365;27;20195;-82
2022/08/13 11:29:03;;;;;;;3.00;2.33;;;28.20;12.40;;;;;;5141929;27;20205;-82
2022/08/13 11:31:33;;;;;;;3.47;2.08;;;27.90;10.60;;;;;;5141979;27;20239;-82
2022/08/13 11:34:10;;;;;;;2.55;2.35;;;28.00;10.80;;;;;;5141003;27;20225;-82
2022/08/13 11:36:37;;;;;;;4.85;2.20;;;28.20;11.00;;;;;;5140930;27;20572;-82
2022/08/13 11:39:04;;;;;;;2.47;2.28;;;28.10;10.70;;;;;;5141052;27;20197;-82
2022/08/13 11:41:31;;;;;;;3.33;2.30;;;27.80;12.50;;;;;;5132288;27;20195;-82
2022/08/13 11:44:03;;;;;;;2.85;2.33;;;27.70;12.00;;;;;;5140552;27;20218;-82
2022/08/13 11:46:30;;;;;;;2.47;2.28;;;27.80;12.00;;;;;;5135691;27;20573;-82
2022/08/13 11:49:03;;;;;;;2.20;2.00;;;27.70;12.70;;;;;;5139871;27;20203;-82
2022/08/13 11:51:31;;;;;;;3.70;2.17;;;27.60;11.70;;;;;;5138043;27;20226;-82
2022/08/13 11:53:58;;;;;;;2.90;2.30;;;27.30;12.10;;;;;;5131868;27;20221;-82
2022/08/13 11:56:27;;;;;;;3.70;2.40;;;27.30;12.40;;;;;;5140609;27;20215;-82
2022/08/13 11:58:55;;;;;;;6.05;2.38;;;27.40;11.70;;;;;;5138378;27;20191;-82
2022/08/13 12:01:22;;;;;;;2.58;1.95;;;27.10;12.50;;;;;;5140908;27;20199;-82
2022/08/13 12:03:49;;;;;;;4.00;2.30;;;26.90;12.70;;;;;;5138080;27;20202;-82
2022/08/13 12:06:16;;;;;;;4.47;2.13;;;26.90;13.00;;;;;;5130942;27;20267;-80
2022/08/13 12:08:44;;;;;;;2.55;1.90;;;26.80;12.10;;;;;;5137324;27;20191;-80
2022/08/13 12:11:11;;;;;;;2.50;2.30;;;26.50;12.00;;;;;;5134522;27;20226;-80
2022/08/13 12:13:38;;;;;;;2.53;2.30;;;26.60;12.40;;;;;;5125879;27;20222;-80
2022/08/13 12:16:11;;;;;;;2.75;2.20;;;27.10;11.30;;;;;;5121862;27;20203;-81
2022/08/13 12:18:38;;;;;;;3.67;1.90;;;27.10;11.90;;;;;;5133302;27;20226;-80
2022/08/13 12:21:09;;;;;;;5.15;2.40;;;27.80;10.60;;;;;;5141353;27;20277;-82
2022/08/13 12:23:36;;;;;;;2.85;2.10;;;28.10;10.20;;;;;;5140537;27;20202;-82
2022/08/13 12:26:04;;;;;;;2.22;1.73;;;28.00;10.80;;;;;;5138120;27;20194;-82
2022/08/13 12:28:33;;;;;;;5.90;2.08;;;27.80;9.90;;;;;;5129538;27;20197;-82
2022/08/13 12:31:01;;;;;;;3.13;1.90;;;27.50;10.70;;;;;;5133170;27;20200;-82
2022/08/13 12:33:29;;;;;;;3.47;1.90;;;27.10;10.20;;;;;;5126643;27;20610;-82
2022/08/13 12:35:56;;;;;;;4.18;2.03;;;27.00;9.80;;;;;;5135323;27;20200;-81
2022/08/13 12:38:23;;;;;;;2.30;2.10;;;26.70;10.60;;;;;;5133844;27;20283;-81
2022/08/13 12:40:50;;;;;;;2.83;1.95;;;26.50;11.90;;;;;;5128455;27;20203;-81
2022/08/13 12:43:18;;;;;;;2.88;2.08;;;26.40;11.70;;;;;;5127468;27;20200;-81
2022/08/13 12:45:45;;;;;;;2.28;2.00;;;26.40;11.30;;;;;;5130927;27;20191;-82
2022/08/13 12:48:14;;;;;;;3.15;2.00;;;26.40;11.60;;;;;;5135152;27;20206;-81
2022/08/13 12:50:42;;;;;;;2.05;1.88;;;26.20;13.00;;;;;;5126197;27;20600;-79
2022/08/13 12:53:10;;;;;;;2.38;2.17;;;26.10;10.40;;;;;;5122839;27;20700;-81
2022/08/13 12:55:39;;;;;;;3.30;2.03;;;26.00;11.70;;;;;;5130397;27;20187;-81
2022/08/13 12:58:18;;;;;;;2.33;2.13;;;25.70;12.40;;;;;;5136200;27;20203;-81
2022/08/13 13:01:03;;;;;;;3.13;1.95;;;25.80;11.70;;;;;;5130999;27;20199;-81
2022/08/13 13:03:33;;;;;;;3.15;1.85;;;25.70;12.50;;;;;;5123839;27;20224;-81
2022/08/13 13:06:00;;;;;;;2.30;2.10;;;25.70;11.20;;;;;;5126357;27;20264;-81
2022/08/13 13:08:29;;;;;;;2.30;2.10;;;25.70;10.80;;;;;;5148602;27;20209;-81
2022/08/13 13:11:05;;;;;;;2.05;1.92;;;25.60;12.80;;;;;;5127898;27;20259;-81
2022/08/13 13:13:35;;;;;;;2.17;1.92;;;25.60;12.20;;;;;;5139682;27;20225;-81
2022/08/13 13:16:03;;;;;;;2.25;1.90;;;25.70;12.70;;;;;;5120942;27;20196;-81
2022/08/13 13:18:30;;;;;;;1.90;1.80;;;25.90;12.80;;;;;;5132123;28;20198;-81
2022/08/13 13:20:58;;;;;;;4.13;2.10;;;26.00;12.30;;;;;;5138605;27;20658;-81